createdAt,value
2023-03-02T00:02:43.432Z,33.53
2023-03-02T00:07:46.603Z,33.60
2023-03-02T00:12:50.807Z,30.42
2023-03-02T00:17:52.512Z,33.88
2023-03-02T00:22:55.524Z,34.42
2023-03-02T00:27:57.201Z,30.37
2023-03-02T00:32:58.977Z,33.63
2023-03-02T00:38:02.087Z,32.83
2023-03-02T00:43:03.913Z,32.42
2023-03-02T00:48:05.940Z,31.92
2023-03-02T00:53:09.278Z,28.10
2023-03-02T00:58:11.010Z,32.20
2023-03-02T01:03:12.759Z,29.37
2023-03-02T01:08:15.957Z,30.12
2023-03-02T01:13:17.877Z,31.65
2023-03-02T01:18:19.618Z,30.40
2023-03-02T01:23:22.656Z,30.85
2023-03-02T01:28:24.351Z,34.78
2023-03-02T01:33:26.044Z,33.72
2023-03-02T01:38:29.256Z,36.42
2023-03-02T01:43:30.972Z,34.45
2023-03-02T01:48:39.339Z,34.38
2023-03-02T01:53:44.685Z,38.17
2023-03-02T01:58:51.042Z,36.53
2023-03-02T02:03:52.831Z,38.10
2023-03-02T02:08:58.260Z,38.05
2023-03-02T02:14:01.903Z,34.97
2023-03-02T02:19:05.982Z,36.33
2023-03-02T02:24:12.145Z,37.70
2023-03-02T02:29:18.692Z,33.10
2023-03-02T02:34:23.849Z,30.73
2023-03-02T02:39:29.795Z,47.35
2023-03-02T02:44:33.698Z,35.95
2023-03-02T02:49:38.977Z,37.60
2023-03-02T02:54:42.275Z,32.53
2023-03-02T02:59:47.953Z,33.60
2023-03-02T03:04:49.761Z,31.48
2023-03-02T03:09:56.868Z,32.50
2023-03-02T03:15:01.304Z,33.83
2023-03-02T03:20:03.772Z,36.53
2023-03-02T03:25:05.978Z,35.17
2023-03-02T03:30:10.794Z,38.30
2023-03-02T03:35:12.610Z,32.38
2023-03-02T03:40:14.616Z,37.50
2023-03-02T03:45:17.942Z,33.85
2023-03-02T03:50:19.714Z,35.55
2023-03-02T03:55:21.461Z,34.47
2023-03-02T04:00:24.914Z,34.42
2023-03-02T04:05:26.628Z,37.95
2023-03-02T04:10:29.241Z,37.92
2023-03-02T04:15:32.633Z,38.67
2023-03-02T04:20:35.401Z,32.75
2023-03-02T04:25:37.118Z,36.05
2023-03-02T04:30:40.207Z,32.00
2023-03-02T04:35:42.010Z,38.00
2023-03-02T04:40:43.774Z,35.85
2023-03-02T04:45:50.654Z,29.92
2023-03-02T04:50:52.484Z,29.12
2023-03-02T04:55:54.314Z,32.05
2023-03-02T05:00:57.541Z,36.72
2023-03-02T05:05:59.320Z,29.12
2023-03-02T05:11:01.298Z,34.83
2023-03-02T05:16:05.185Z,35.58
2023-03-02T05:21:06.964Z,28.45
2023-03-02T05:26:09.174Z,29.05
2023-03-02T05:31:16.379Z,28.25
2023-03-02T05:36:19.895Z,30.73
2023-03-02T05:41:23.158Z,27.52
2023-03-02T05:46:26.506Z,38.53
2023-03-02T05:51:28.274Z,32.60
2023-03-02T05:56:30.131Z,29.08
2023-03-02T06:01:33.715Z,32.72
2023-03-02T06:06:36.110Z,30.83
2023-03-02T06:11:37.982Z,34.33
2023-03-02T06:16:40.998Z,28.70
2023-03-02T06:21:42.856Z,30.48
2023-03-02T06:26:44.695Z,31.90
2023-03-02T06:31:48.303Z,33.13
2023-03-02T06:36:50.074Z,27.17
2023-03-02T06:41:51.818Z,30.20
2023-03-02T06:46:54.827Z,26.12
2023-03-02T06:51:56.480Z,26.55
2023-03-02T06:56:58.205Z,27.33
2023-03-02T07:02:01.449Z,25.92
2023-03-02T07:07:03.221Z,30.02
2023-03-02T07:12:05.274Z,29.20
2023-03-02T07:17:08.440Z,29.33
2023-03-02T07:22:10.201Z,29.12
2023-03-02T07:27:12.133Z,28.30
2023-03-02T07:32:15.321Z,27.37
2023-03-02T07:37:17.105Z,29.52
2023-03-02T07:42:18.879Z,26.83
2023-03-02T07:47:22.225Z,32.50
2023-03-02T07:52:24.199Z,35.15
2023-03-02T07:57:25.969Z,27.92
2023-03-02T08:02:29.193Z,29.75
2023-03-02T08:07:30.945Z,27.65
2023-03-02T08:12:32.690Z,28.80
2023-03-02T08:17:35.980Z,34.13
2023-03-02T08:22:37.838Z,33.67
2023-03-02T08:27:39.559Z,28.40
2023-03-02T08:32:42.716Z,30.83
2023-03-02T08:37:44.438Z,30.15
2023-03-02T08:42:46.135Z,32.50
2023-03-02T08:47:49.300Z,31.17
2023-03-02T08:52:51.072Z,25.55
2023-03-02T08:57:52.826Z,24.77
2023-03-02T09:02:55.992Z,35.92
2023-03-02T09:07:57.649Z,30.88
2023-03-02T09:12:59.529Z,26.90
2023-03-02T09:18:02.860Z,28.48
2023-03-02T09:23:04.511Z,31.45
2023-03-02T09:28:06.200Z,27.50
2023-03-02T09:33:09.335Z,31.73
2023-03-02T09:38:11.349Z,29.95
2023-03-02T09:43:23.151Z,29.33
2023-03-02T09:48:37.398Z,37.58
2023-03-02T09:53:46.303Z,28.63
2023-03-02T09:58:53.711Z,30.50
2023-03-02T10:04:07.048Z,27.25
2023-03-02T10:09:10.249Z,29.60
2023-03-02T10:14:18.290Z,25.90
2023-03-02T10:19:26.458Z,28.73
2023-03-02T10:24:35.223Z,30.80
2023-03-02T10:29:46.502Z,31.25
2023-03-02T10:34:51.112Z,22.30
2023-03-02T10:39:52.999Z,25.73
2023-03-02T10:44:58.992Z,29.63
2023-03-02T10:50:17.839Z,28.10
2023-03-02T10:55:19.574Z,40.00
2023-03-02T11:00:24.135Z,29.20
2023-03-02T11:05:32.877Z,27.45
2023-03-02T11:10:36.901Z,50.20
2023-03-02T11:15:44.693Z,31.27
2023-03-02T11:20:51.663Z,32.30
2023-03-02T11:25:56.944Z,24.92
2023-03-02T11:31:02.933Z,31.60
2023-03-02T11:36:13.126Z,33.50
2023-03-02T11:41:27.558Z,29.77
2023-03-02T11:46:36.344Z,22.53
2023-03-02T11:51:57.829Z,25.40
2023-03-02T11:57:00.898Z,27.33
2023-03-02T12:02:04.081Z,24.60
2023-03-02T12:07:20.795Z,25.65
2023-03-02T12:12:42.143Z,24.60
2023-03-02T12:17:43.903Z,34.55
2023-03-02T12:22:46.988Z,28.25
2023-03-02T12:27:51.264Z,25.70
2023-03-02T12:33:03.800Z,26.27
2023-03-02T12:38:18.329Z,30.90
2023-03-02T12:43:29.214Z,26.57
2023-03-02T12:48:38.307Z,23.45
2023-03-02T12:53:41.462Z,24.10
2023-03-02T12:58:49.718Z,24.30
2023-03-02T13:03:52.115Z,30.70
2023-03-02T13:08:57.841Z,27.62
2023-03-02T13:14:01.220Z,22.42
2023-03-02T13:19:11.085Z,24.17
2023-03-02T13:24:34.898Z,24.92
2023-03-02T13:29:36.612Z,28.92
2023-03-02T13:34:38.414Z,30.12
2023-03-02T13:39:41.549Z,27.37
2023-03-02T13:44:43.277Z,25.62
2023-03-02T13:49:45.078Z,22.00
2023-03-02T13:54:48.245Z,24.00
2023-03-02T13:59:50.020Z,22.70
2023-03-02T14:04:52.222Z,24.00
2023-03-02T14:09:57.289Z,29.48
2023-03-02T14:15:02.031Z,25.92
2023-03-02T14:20:04.106Z,24.07
2023-03-02T14:25:08.409Z,23.77
2023-03-02T14:30:15.578Z,22.33
2023-03-02T14:35:17.257Z,34.10
2023-03-02T14:40:24.064Z,24.70
2023-03-02T14:45:25.840Z,21.83
2023-03-02T14:50:27.571Z,26.20
2023-03-02T14:55:31.837Z,23.87
2023-03-02T15:00:33.571Z,27.80
2023-03-02T15:05:35.478Z,26.35
2023-03-02T15:10:38.542Z,24.05
2023-03-02T15:15:41.297Z,25.27
2023-03-02T15:20:43.046Z,29.73
2023-03-02T15:25:46.230Z,26.65
2023-03-02T15:30:47.951Z,24.17
2023-03-02T15:35:53.724Z,28.65
2023-03-02T15:40:58.092Z,29.42
2023-03-02T15:46:02.214Z,25.27
2023-03-02T15:51:05.569Z,27.75
2023-03-02T15:56:10.449Z,26.27
2023-03-02T16:01:12.256Z,28.62
2023-03-02T16:06:14.091Z,25.55
2023-03-02T16:11:18.846Z,35.92
2023-03-02T16:16:22.017Z,27.15
2023-03-02T16:21:25.454Z,25.75
2023-03-02T16:26:28.704Z,26.87
2023-03-02T16:31:30.819Z,32.65
2023-03-02T16:36:32.805Z,31.92
2023-03-02T16:41:40.267Z,24.92
2023-03-02T16:46:42.244Z,24.80
2023-03-02T16:51:44.057Z,25.73
2023-03-02T16:56:47.308Z,36.95
2023-03-02T17:01:49.349Z,21.40
2023-03-02T17:07:00.424Z,20.67
2023-03-02T17:12:04.475Z,20.35
2023-03-02T17:17:06.230Z,23.52
2023-03-02T17:22:08.178Z,19.87
2023-03-02T17:27:24.006Z,19.40
2023-03-02T17:32:26.659Z,18.45
2023-03-02T17:37:28.826Z,18.85
2023-03-02T17:42:32.588Z,19.70
2023-03-02T17:47:34.677Z,19.35
2023-03-02T17:52:36.356Z,18.58
2023-03-02T17:57:39.957Z,19.55
2023-03-02T18:02:41.689Z,19.15
2023-03-02T18:07:43.370Z,19.23
2023-03-02T18:12:47.314Z,17.70
2023-03-02T18:17:49.258Z,18.05
2023-03-02T18:22:51.030Z,19.15
2023-03-02T18:27:54.770Z,18.70
2023-03-02T18:32:56.725Z,18.87
2023-03-02T18:37:58.440Z,18.58
2023-03-02T18:43:01.588Z,17.90
2023-03-02T18:48:04.226Z,21.35
2023-03-02T18:53:05.915Z,18.60
2023-03-02T18:58:16.066Z,20.25
2023-03-02T19:03:17.781Z,22.87
2023-03-02T19:08:19.467Z,19.40
2023-03-02T19:13:23.801Z,18.73
2023-03-02T19:18:25.628Z,18.77
2023-03-02T19:23:27.623Z,18.90
2023-03-02T19:28:30.801Z,19.48
2023-03-02T19:33:32.956Z,18.67
2023-03-02T19:38:34.958Z,19.05
2023-03-02T19:43:37.999Z,21.67
2023-03-02T19:48:39.926Z,20.33
2023-03-02T19:54:07.544Z,20.08
2023-03-02T19:59:15.994Z,20.65
2023-03-02T20:04:21.998Z,19.35
2023-03-02T20:09:23.908Z,18.05
2023-03-02T20:14:33.796Z,19.77
2023-03-02T20:19:36.064Z,19.73
2023-03-02T20:24:38.323Z,17.83
2023-03-02T20:29:43.506Z,19.10
2023-03-02T20:34:45.268Z,20.40
2023-03-02T20:39:47.065Z,19.37
2023-03-02T20:44:50.287Z,19.00
2023-03-02T20:49:52.158Z,18.98
2023-03-02T20:54:53.921Z,19.55
2023-03-02T21:00:00.999Z,22.23
2023-03-02T21:05:02.831Z,20.58
2023-03-02T21:10:07.255Z,19.33
2023-03-02T21:15:19.722Z,19.62
2023-03-02T21:20:22.267Z,20.40
2023-03-02T21:25:24.061Z,18.40
2023-03-02T21:30:33.538Z,21.33
2023-03-02T21:35:35.664Z,19.50
2023-03-02T21:40:40.041Z,21.33
2023-03-02T21:45:46.273Z,21.98
2023-03-02T21:50:51.031Z,23.77
2023-03-02T21:55:52.791Z,21.23
2023-03-02T22:00:55.998Z,20.83
2023-03-02T22:05:57.752Z,22.85
2023-03-02T22:11:02.521Z,22.15
2023-03-02T22:21:32.839Z,23.45
2023-03-02T22:26:38.779Z,24.45
2023-03-02T22:31:45.354Z,24.60
2023-03-02T22:36:47.487Z,23.10
2023-03-02T22:41:53.987Z,21.23
2023-03-02T22:47:29.882Z,22.87
2023-03-02T22:52:36.769Z,27.67
2023-03-02T22:57:38.584Z,22.42
2023-03-02T23:02:44.243Z,24.05
2023-03-02T23:07:45.970Z,21.45
2023-03-02T23:12:49.647Z,21.83
2023-03-02T23:17:58.406Z,26.73
2023-03-02T23:23:00.212Z,25.05
2023-03-02T23:28:01.966Z,26.58
2023-03-02T23:33:05.176Z,25.17
2023-03-02T23:38:06.971Z,26.65
2023-03-02T23:43:08.660Z,25.60
2023-03-02T23:48:11.720Z,26.50
2023-03-02T23:53:13.490Z,33.10
2023-03-02T23:58:15.353Z,28.77
